createdAt,value
2018-09-10T00:00:27.104Z,68.75
2018-09-10T00:03:32.051Z,70.02
2018-09-10T00:06:37.017Z,69.61
2018-09-10T00:09:41.966Z,69.39
2018-09-10T00:12:46.912Z,69.45
2018-09-10T00:15:51.896Z,69.97
2018-09-10T00:18:56.882Z,69.75
2018-09-10T00:22:01.868Z,68.94
2018-09-10T00:25:07.184Z,69.40
2018-09-10T00:28:12.113Z,68.80
2018-09-10T00:31:17.081Z,68.78
2018-09-10T00:34:22.032Z,69.71
2018-09-10T00:37:26.987Z,69.71
2018-09-10T00:40:31.892Z,70.18
2018-09-10T00:43:36.850Z,69.26
2018-09-10T00:46:41.774Z,70.39
2018-09-10T00:49:46.714Z,69.63
2018-09-10T00:52:51.724Z,69.69
2018-09-10T00:55:56.940Z,70.66
2018-09-10T00:59:01.894Z,70.12
2018-09-10T01:02:06.858Z,70.20
2018-09-10T01:05:11.807Z,70.76
2018-09-10T01:08:16.739Z,71.96
2018-09-10T01:11:21.681Z,70.83
2018-09-10T01:14:26.633Z,71.05
2018-09-10T01:17:31.568Z,70.51
2018-09-10T01:20:36.489Z,70.41
2018-09-10T01:23:41.444Z,70.56
2018-09-10T01:26:46.362Z,70.56
2018-09-10T01:29:51.285Z,70.21
2018-09-10T01:32:56.208Z,70.28
2018-09-10T01:36:01.175Z,70.61
2018-09-10T01:39:06.653Z,70.41
2018-09-10T01:42:11.611Z,71.53
2018-09-10T01:45:16.541Z,70.56
2018-09-10T01:48:21.481Z,71.58
2018-09-10T01:51:26.458Z,70.53
2018-09-10T01:54:31.649Z,71.23
2018-09-10T01:57:36.603Z,72.73
2018-09-10T02:00:41.529Z,72.49
2018-09-10T02:03:46.697Z,72.39
2018-09-10T02:06:51.689Z,71.79
2018-09-10T02:09:56.662Z,71.80
2018-09-10T02:13:01.601Z,72.52
2018-09-10T02:16:11.185Z,72.62
2018-09-10T02:19:16.148Z,71.53
2018-09-10T02:22:21.469Z,71.97
2018-09-10T02:25:26.439Z,72.31
2018-09-10T02:28:31.394Z,72.30
2018-09-10T02:31:36.353Z,72.85
2018-09-10T02:34:41.290Z,72.32
2018-09-10T02:37:46.238Z,71.78
2018-09-10T02:40:51.223Z,72.76
2018-09-10T02:43:56.173Z,72.56
2018-09-10T02:47:01.102Z,72.06
2018-09-10T02:50:06.079Z,71.64
2018-09-10T02:53:10.977Z,72.54
2018-09-10T02:56:15.898Z,72.15
2018-09-10T02:59:20.833Z,71.84
2018-09-10T03:02:25.821Z,71.74
2018-09-10T03:05:30.738Z,73.15
2018-09-10T03:08:35.647Z,73.09
2018-09-10T03:11:40.582Z,72.24
2018-09-10T03:14:45.501Z,73.29
2018-09-10T03:17:50.990Z,73.06
2018-09-10T03:20:55.862Z,71.91
2018-09-10T03:24:00.891Z,71.99
2018-09-10T03:27:05.822Z,73.16
2018-09-10T03:30:10.769Z,73.82
2018-09-10T03:33:15.757Z,73.14
2018-09-10T03:36:20.669Z,72.95
2018-09-10T03:39:25.612Z,72.63
2018-09-10T03:42:30.544Z,72.58
2018-09-10T03:45:35.497Z,72.53
2018-09-10T03:48:40.601Z,72.75
2018-09-10T03:51:45.542Z,74.16
2018-09-10T03:54:50.481Z,73.45
2018-09-10T03:57:55.418Z,73.51
2018-09-10T04:01:00.537Z,74.90
2018-09-10T04:04:05.539Z,73.99
2018-09-10T04:07:10.480Z,73.64
2018-09-10T04:10:15.441Z,73.99
2018-09-10T04:13:20.367Z,73.89
2018-09-10T04:16:25.328Z,74.02
2018-09-10T04:19:30.305Z,74.92
2018-09-10T04:22:35.246Z,74.72
2018-09-10T04:25:40.255Z,74.56
2018-09-10T04:28:45.180Z,74.66
2018-09-10T04:31:50.103Z,74.85
2018-09-10T04:34:55.045Z,73.85
2018-09-10T04:37:59.981Z,73.49
2018-09-10T04:41:04.952Z,73.94
2018-09-10T04:44:09.896Z,74.48
2018-09-10T04:47:14.841Z,74.42
2018-09-10T04:50:19.802Z,75.19
2018-09-10T04:53:25.233Z,74.95
2018-09-10T04:56:30.364Z,74.75
2018-09-10T04:59:35.285Z,75.25
2018-09-10T05:02:40.218Z,75.84
2018-09-10T05:05:45.198Z,75.19
2018-09-10T05:08:50.142Z,75.04
2018-09-10T05:11:55.106Z,76.42
2018-09-10T05:15:00.240Z,75.46
2018-09-10T05:18:05.186Z,74.77
2018-09-10T05:21:10.257Z,74.87
2018-09-10T05:24:15.165Z,75.11
2018-09-10T05:27:20.085Z,75.92
2018-09-10T05:30:25.012Z,74.87
2018-09-10T05:33:29.946Z,74.70
2018-09-10T05:36:34.880Z,75.28
2018-09-10T05:39:39.871Z,75.40
2018-09-10T05:42:44.811Z,74.54
2018-09-10T05:45:49.741Z,75.18
2018-09-10T05:48:54.685Z,74.28
2018-09-10T05:51:59.610Z,73.82
2018-09-10T05:55:04.611Z,74.20
2018-09-10T05:58:09.545Z,75.32
2018-09-10T06:01:14.453Z,74.16
2018-09-10T06:04:19.434Z,74.02
2018-09-10T06:07:24.360Z,74.09
2018-09-10T06:10:29.317Z,74.51
2018-09-10T06:13:34.234Z,73.83
2018-09-10T06:16:39.214Z,74.18
2018-09-10T06:19:44.104Z,74.06
2018-09-10T06:22:49.039Z,73.58
2018-09-10T06:25:53.989Z,73.85
2018-09-10T06:28:58.946Z,72.56
2018-09-10T06:32:03.861Z,73.37
2018-09-10T06:35:08.949Z,72.45
2018-09-10T06:38:13.931Z,71.54
2018-09-10T06:41:18.846Z,71.85
2018-09-10T06:44:23.780Z,70.03
2018-09-10T06:47:28.727Z,68.75
2018-09-10T06:50:33.669Z,68.06
2018-09-10T06:53:38.710Z,68.31
2018-09-10T06:56:43.685Z,66.42
2018-09-10T06:59:48.653Z,65.67
2018-09-10T07:02:53.640Z,64.55
2018-09-10T07:05:58.588Z,63.93
2018-09-10T07:09:05.431Z,63.74
2018-09-10T07:12:10.371Z,64.25
2018-09-10T07:15:15.428Z,62.83
2018-09-10T07:18:20.622Z,62.89
2018-09-10T07:21:25.607Z,63.35
2018-09-10T07:24:30.625Z,63.94
2018-09-10T07:27:35.601Z,63.67
2018-09-10T07:30:40.541Z,63.24
2018-09-10T07:33:45.476Z,62.48
2018-09-10T07:36:50.416Z,60.42
2018-09-10T07:39:55.465Z,59.44
2018-09-10T07:43:00.432Z,58.62
2018-09-10T07:46:05.600Z,57.77
2018-09-10T07:49:10.524Z,57.61
2018-09-10T07:52:15.445Z,58.16
2018-09-10T07:55:21.268Z,57.18
2018-09-10T07:58:26.580Z,58.63
2018-09-10T08:01:31.501Z,56.88
2018-09-10T08:04:36.468Z,57.88
2018-09-10T08:07:41.748Z,59.37
2018-09-10T08:10:47.667Z,58.03
2018-09-10T08:13:59.636Z,56.90
2018-09-10T08:17:08.350Z,56.10
2018-09-10T08:20:14.119Z,55.48
2018-09-10T08:23:19.405Z,55.65
2018-09-10T08:26:24.748Z,54.16
2018-09-10T08:29:30.492Z,53.37
2018-09-10T08:32:38.182Z,53.44
2018-09-10T08:35:45.898Z,51.04
2018-09-10T08:38:51.355Z,50.86
2018-09-10T08:41:56.914Z,50.28
2018-09-10T08:45:03.525Z,51.27
2018-09-10T08:48:08.762Z,51.90
2018-09-10T08:51:20.517Z,51.48
2018-09-10T08:54:25.927Z,52.18
2018-09-10T08:57:31.145Z,50.12
2018-09-10T09:00:36.483Z,49.41
2018-09-10T09:03:41.697Z,49.86
2018-09-10T09:06:46.954Z,47.41
2018-09-10T09:09:55.178Z,46.98
2018-09-10T09:13:00.559Z,47.10
2018-09-10T09:16:06.190Z,47.81
2018-09-10T09:19:15.081Z,45.42
2018-09-10T09:22:20.523Z,45.69
2018-09-10T09:25:25.640Z,43.57
2018-09-10T09:28:30.977Z,42.44
2018-09-10T09:31:35.987Z,37.51
2018-09-10T09:34:46.620Z,36.70
2018-09-10T09:38:55.411Z,36.24
2018-09-10T09:42:07.868Z,35.19
2018-09-10T09:45:19.146Z,35.54
2018-09-10T09:48:24.206Z,33.91
2018-09-10T09:51:29.182Z,32.17
2018-09-10T09:54:34.130Z,31.50
2018-09-10T09:57:39.088Z,29.64
2018-09-10T10:00:49.627Z,29.20
2018-09-10T10:03:55.667Z,28.73
2018-09-10T10:07:00.615Z,29.55
2018-09-10T10:10:05.651Z,29.28
2018-09-10T10:13:10.577Z,30.70
2018-09-10T10:16:15.580Z,31.41
2018-09-10T10:19:20.521Z,31.45
2018-09-10T10:22:25.482Z,32.98
2018-09-10T10:25:30.479Z,30.27
2018-09-10T10:28:35.420Z,32.34
2018-09-10T10:31:40.385Z,31.99
2018-09-10T10:34:45.337Z,32.60
2018-09-10T10:37:51.932Z,30.46
2018-09-10T10:40:57.081Z,33.66
2018-09-10T10:44:02.279Z,32.87
2018-09-10T10:47:07.382Z,30.53
2018-09-10T10:50:12.742Z,31.95
2018-09-10T10:53:17.908Z,32.94
2018-09-10T10:56:22.833Z,32.86
2018-09-10T10:59:28.054Z,32.47
2018-09-10T11:02:33.190Z,32.19
2018-09-10T11:05:38.504Z,31.72
2018-09-10T11:08:43.477Z,31.63
2018-09-10T11:11:48.482Z,31.52
2018-09-10T11:14:53.461Z,30.19
2018-09-10T11:17:58.442Z,28.10
2018-09-10T11:21:03.493Z,29.84
2018-09-10T11:24:08.496Z,29.80
2018-09-10T11:27:13.553Z,29.32
2018-09-10T11:30:18.585Z,29.28
2018-09-10T11:33:23.565Z,28.72
2018-09-10T11:36:28.542Z,29.16
2018-09-10T11:39:33.545Z,29.88
2018-09-10T11:42:38.581Z,30.12
2018-09-10T11:45:44.308Z,29.84
2018-09-10T11:48:49.272Z,29.08
2018-09-10T11:51:54.230Z,28.43
2018-09-10T11:55:01.281Z,30.08
2018-09-10T11:58:15.895Z,29.88
2018-09-10T12:01:21.305Z,30.54
2018-09-10T12:04:26.301Z,30.56
2018-09-10T12:07:31.269Z,30.02
2018-09-10T12:10:36.266Z,29.72
2018-09-10T12:13:41.424Z,31.04
2018-09-10T12:16:46.555Z,31.21
2018-09-10T12:19:51.780Z,30.50
2018-09-10T12:22:56.778Z,31.33
2018-09-10T12:26:01.806Z,30.20
2018-09-10T12:29:06.783Z,31.03
2018-09-10T12:32:11.772Z,30.47
2018-09-10T12:35:16.774Z,31.26
2018-09-10T12:38:21.777Z,30.37
2018-09-10T12:41:26.742Z,30.90
2018-09-10T12:44:31.727Z,30.07
2018-09-10T12:47:36.771Z,30.93
2018-09-10T12:50:41.829Z,31.00
2018-09-10T12:53:46.821Z,31.26
2018-09-10T12:56:51.801Z,30.82
2018-09-10T12:59:56.829Z,31.31
2018-09-10T13:03:01.898Z,31.07
2018-09-10T13:06:06.946Z,31.98
2018-09-10T13:09:11.903Z,30.24
2018-09-10T13:12:16.869Z,31.46
2018-09-10T13:15:21.861Z,31.57
2018-09-10T13:18:26.848Z,31.36
2018-09-10T13:21:31.874Z,32.47
2018-09-10T13:24:36.866Z,32.34
2018-09-10T13:27:41.812Z,33.45
2018-09-10T13:30:47.049Z,32.93
2018-09-10T13:33:52.228Z,32.03
2018-09-10T13:36:57.510Z,31.48
2018-09-10T13:40:02.539Z,33.68
2018-09-10T13:43:07.562Z,32.95
2018-09-10T13:46:12.521Z,32.94
2018-09-10T13:49:17.501Z,31.51
2018-09-10T13:52:22.475Z,31.73
2018-09-10T13:55:27.449Z,31.48
2018-09-10T13:58:32.447Z,31.55
2018-09-10T14:01:37.421Z,32.25
2018-09-10T14:04:42.385Z,31.40
2018-09-10T14:07:47.392Z,32.42
2018-09-10T14:10:52.417Z,32.41
2018-09-10T14:13:57.357Z,33.29
2018-09-10T14:17:02.329Z,33.96
2018-09-10T14:20:07.389Z,33.63
2018-09-10T14:23:12.321Z,33.98
2018-09-10T14:26:17.309Z,34.54
2018-09-10T14:29:22.253Z,33.94
2018-09-10T14:32:27.223Z,33.24
2018-09-10T14:35:32.224Z,32.46
2018-09-10T14:38:37.161Z,32.34
2018-09-10T14:41:42.107Z,32.95
2018-09-10T14:44:47.053Z,33.81
2018-09-10T14:47:52.300Z,33.95
2018-09-10T14:50:57.232Z,34.29
2018-09-10T14:54:02.185Z,33.52
2018-09-10T14:57:07.137Z,33.29
2018-09-10T15:00:17.828Z,33.86
2018-09-10T15:03:22.762Z,35.78
2018-09-10T15:06:27.688Z,35.35
2018-09-10T15:09:32.631Z,34.06
2018-09-10T15:12:37.566Z,34.46
2018-09-10T15:15:42.486Z,35.12
2018-09-10T15:18:47.530Z,35.61
2018-09-10T15:21:52.385Z,35.86
2018-09-10T15:24:57.334Z,35.12
2018-09-10T15:28:02.314Z,35.02
2018-09-10T15:31:07.248Z,36.08
2018-09-10T15:34:12.209Z,35.39
2018-09-10T15:37:17.217Z,34.80
2018-09-10T15:40:22.196Z,35.15
2018-09-10T15:43:27.210Z,35.63
2018-09-10T15:46:32.197Z,36.21
2018-09-10T15:49:37.190Z,36.19
2018-09-10T15:52:42.180Z,35.72
2018-09-10T15:55:48.606Z,36.42
2018-09-10T15:58:53.641Z,36.25
2018-09-10T16:01:58.592Z,37.36
2018-09-10T16:05:03.759Z,36.87
2018-09-10T16:08:08.731Z,36.31
2018-09-10T16:11:13.716Z,36.42
2018-09-10T16:14:18.738Z,36.54
2018-09-10T16:17:23.673Z,36.72
2018-09-10T16:20:28.813Z,37.69
2018-09-10T16:23:33.909Z,37.64
2018-09-10T16:26:38.861Z,36.71
2018-09-10T16:29:43.821Z,38.01
2018-09-10T16:32:49.116Z,36.46
2018-09-10T16:35:54.235Z,38.55
2018-09-10T16:38:59.199Z,38.68
2018-09-10T16:42:04.245Z,39.02
2018-09-10T16:45:09.359Z,38.12
2018-09-10T16:48:14.677Z,39.37
2018-09-10T16:51:19.623Z,38.86
2018-09-10T16:54:24.802Z,38.39
2018-09-10T16:57:29.705Z,39.51
2018-09-10T17:00:34.733Z,39.49
2018-09-10T17:03:39.787Z,39.12
2018-09-10T17:06:44.927Z,39.89
2018-09-10T17:09:49.890Z,40.03
2018-09-10T17:12:54.934Z,40.15
2018-09-10T17:16:00.015Z,40.03
2018-09-10T17:19:05.011Z,40.99
2018-09-10T17:22:09.985Z,40.65
2018-09-10T17:25:14.960Z,40.65
2018-09-10T17:28:20.509Z,40.54
2018-09-10T17:31:25.492Z,40.97
2018-09-10T17:34:30.448Z,42.53
2018-09-10T17:37:35.393Z,43.61
2018-09-10T17:40:40.356Z,43.39
2018-09-10T17:43:45.371Z,44.12
2018-09-10T17:46:50.471Z,45.37
2018-09-10T17:49:55.422Z,45.68
2018-09-10T17:53:00.556Z,45.76
2018-09-10T17:56:05.508Z,46.16
2018-09-10T17:59:10.505Z,46.72
2018-09-10T18:02:15.529Z,47.97
2018-09-10T18:05:20.985Z,48.30
2018-09-10T18:08:25.965Z,48.95
2018-09-10T18:11:30.958Z,49.20
2018-09-10T18:14:35.934Z,49.14
2018-09-10T18:17:40.876Z,49.69
2018-09-10T18:20:45.831Z,50.42
2018-09-10T18:23:50.748Z,50.92
2018-09-10T18:26:55.725Z,50.67
2018-09-10T18:30:00.765Z,51.04
2018-09-10T18:33:05.744Z,52.41
2018-09-10T18:36:10.718Z,51.97
2018-09-10T18:39:15.699Z,52.34
2018-09-10T18:42:20.684Z,52.91
2018-09-10T18:45:25.652Z,53.19
2018-09-10T18:48:30.597Z,54.04
2018-09-10T18:51:35.541Z,53.84
2018-09-10T18:54:40.493Z,54.02
2018-09-10T18:57:45.452Z,55.21
2018-09-10T19:00:50.498Z,55.73
2018-09-10T19:03:55.383Z,56.03
2018-09-10T19:07:00.336Z,55.30
2018-09-10T19:10:06.150Z,55.98
2018-09-10T19:13:11.453Z,55.58
2018-09-10T19:16:16.853Z,57.24
2018-09-10T19:19:22.113Z,57.37
2018-09-10T19:22:27.179Z,57.21
2018-09-10T19:25:32.452Z,58.70
2018-09-10T19:28:37.666Z,57.98
2018-09-10T19:31:42.928Z,58.02
2018-09-10T19:34:48.490Z,59.38
2018-09-10T19:37:53.455Z,59.18
2018-09-10T19:40:59.425Z,59.52
2018-09-10T19:44:04.798Z,59.39
2018-09-10T19:47:10.098Z,59.97
2018-09-10T19:50:15.444Z,60.69
2018-09-10T19:53:20.701Z,61.56
2018-09-10T19:56:25.642Z,60.85
2018-09-10T19:59:30.607Z,60.71
2018-09-10T20:02:35.520Z,62.06
2018-09-10T20:05:40.452Z,61.47
2018-09-10T20:08:45.413Z,62.27
2018-09-10T20:11:50.383Z,62.44
2018-09-10T20:14:55.326Z,62.02
2018-09-10T20:18:00.279Z,62.48
2018-09-10T20:21:05.485Z,61.90
2018-09-10T20:24:10.452Z,62.75
2018-09-10T20:27:15.419Z,63.05
2018-09-10T20:30:20.370Z,62.09
2018-09-10T20:33:25.345Z,62.35
2018-09-10T20:36:30.300Z,63.25
2018-09-10T20:39:35.273Z,64.20
2018-09-10T20:42:40.236Z,64.08
2018-09-10T20:45:45.191Z,63.68
2018-09-10T20:48:50.113Z,63.56
2018-09-10T20:51:55.165Z,64.53
2018-09-10T20:55:00.100Z,63.80
2018-09-10T20:58:05.745Z,63.87
2018-09-10T21:01:10.764Z,64.86
2018-09-10T21:04:15.709Z,64.24
2018-09-10T21:07:20.877Z,64.45
2018-09-10T21:10:25.816Z,64.94
2018-09-10T21:13:30.772Z,65.30
2018-09-10T21:16:35.723Z,63.44
2018-09-10T21:19:40.701Z,65.26
2018-09-10T21:22:45.645Z,65.61
2018-09-10T21:25:50.594Z,65.32
2018-09-10T21:28:55.537Z,65.96
2018-09-10T21:32:00.469Z,64.81
2018-09-10T21:35:05.562Z,65.46
2018-09-10T21:38:10.505Z,65.34
2018-09-10T21:41:15.517Z,65.43
2018-09-10T21:44:20.464Z,66.62
2018-09-10T21:47:25.400Z,65.14
2018-09-10T21:50:30.385Z,65.93
2018-09-10T21:53:35.385Z,65.15
2018-09-10T21:56:40.297Z,66.28
2018-09-10T22:03:26.137Z,65.76
2018-09-10T22:06:31.083Z,66.44
2018-09-10T22:09:36.053Z,66.43
2018-09-10T22:12:41.012Z,66.41
2018-09-10T22:15:46.034Z,67.07
2018-09-10T22:18:50.965Z,66.19
2018-09-10T22:21:56.002Z,66.18
2018-09-10T22:25:00.973Z,66.67
2018-09-10T22:28:05.976Z,66.58
2018-09-10T22:31:10.928Z,66.82
2018-09-10T22:34:15.834Z,67.89
2018-09-10T22:37:20.749Z,68.11
2018-09-10T22:40:25.686Z,68.08
2018-09-10T22:43:30.592Z,67.35
2018-09-10T22:46:35.800Z,67.75
2018-09-10T22:49:40.785Z,68.32
2018-09-10T22:52:45.706Z,68.69
2018-09-10T22:55:50.622Z,67.91
2018-09-10T22:58:55.555Z,67.85
2018-09-10T23:02:00.486Z,68.49
2018-09-10T23:05:05.498Z,69.11
2018-09-10T23:08:10.404Z,69.43
2018-09-10T23:11:15.306Z,69.13
2018-09-10T23:14:20.258Z,68.79
2018-09-10T23:17:25.177Z,68.71
2018-09-10T23:20:30.145Z,70.20
2018-09-10T23:23:35.086Z,69.51
2018-09-10T23:26:40.022Z,70.13
2018-09-10T23:29:44.980Z,68.94
2018-09-10T23:32:49.928Z,70.09
2018-09-10T23:35:54.840Z,69.58
2018-09-10T23:38:59.812Z,69.50
2018-09-10T23:42:04.954Z,70.30
2018-09-10T23:45:09.893Z,69.98
2018-09-10T23:48:14.846Z,69.97
2018-09-10T23:51:19.769Z,69.59
2018-09-10T23:54:24.716Z,69.77
2018-09-10T23:57:29.675Z,69.97
